sensor_id;sensor_type;location;lat;lon;timestamp;temperature;humidity
33761;DHT22;20084;47.912;19.044;2024-02-23T00:01:44;10.70;99.90
33761;DHT22;20084;47.912;19.044;2024-02-23T00:04:09;10.70;99.90
33761;DHT22;20084;47.912;19.044;2024-02-23T00:06:35;10.70;99.90
33761;DHT22;20084;47.912;19.044;2024-02-23T00:09:01;10.70;99.90
33761;DHT22;20084;47.912;19.044;2024-02-23T00:11:26;10.70;99.90
33761;DHT22;20084;47.912;19.044;2024-02-23T00:13:53;10.70;99.90
33761;DHT22;20084;47.912;19.044;2024-02-23T00:16:19;10.70;99.90
33761;DHT22;20084;47.912;19.044;2024-02-23T00:18:45;10.70;99.90
33761;DHT22;20084;47.912;19.044;2024-02-23T00:21:10;10.80;99.90
33761;DHT22;20084;47.912;19.044;2024-02-23T00:23:36;10.80;99.90
33761;DHT22;20084;47.912;19.044;2024-02-23T00:26:02;10.80;99.90
33761;DHT22;20084;47.912;19.044;2024-02-23T00:28:27;10.80;99.90
33761;DHT22;20084;47.912;19.044;2024-02-23T00:30:53;10.80;99.90
33761;DHT22;20084;47.912;19.044;2024-02-23T00:33:19;10.90;99.90
33761;DHT22;20084;47.912;19.044;2024-02-23T00:35:44;10.90;99.90
33761;DHT22;20084;47.912;19.044;2024-02-23T00:38:10;10.90;99.90
33761;DHT22;20084;47.912;19.044;2024-02-23T00:40:36;11.00;99.90
33761;DHT22;20084;47.912;19.044;2024-02-23T00:43:02;11.00;99.90
33761;DHT22;20084;47.912;19.044;2024-02-23T00:45:28;11.00;99.90
33761;DHT22;20084;47.912;19.044;2024-02-23T00:47:54;11.10;99.90
33761;DHT22;20084;47.912;19.044;2024-02-23T00:50:20;11.10;99.90
33761;DHT22;20084;47.912;19.044;2024-02-23T00:52:46;11.10;99.90
33761;DHT22;20084;47.912;19.044;2024-02-23T00:55:11;11.00;99.90
33761;DHT22;20084;47.912;19.044;2024-02-23T00:57:38;11.00;99.90
33761;DHT22;20084;47.912;19.044;2024-02-23T01:00:04;11.00;99.90
33761;DHT22;20084;47.912;19.044;2024-02-23T01:02:31;11.00;99.90
33761;DHT22;20084;47.912;19.044;2024-02-23T01:04:58;11.00;99.90
33761;DHT22;20084;47.912;19.044;2024-02-23T01:07:24;11.00;99.90
33761;DHT22;20084;47.912;19.044;2024-02-23T01:09:50;11.00;99.90
33761;DHT22;20084;47.912;19.044;2024-02-23T01:12:16;11.00;99.90
33761;DHT22;20084;47.912;19.044;2024-02-23T01:14:41;10.90;99.90
33761;DHT22;20084;47.912;19.044;2024-02-23T01:17:07;11.00;99.90
33761;DHT22;20084;47.912;19.044;2024-02-23T01:19:32;11.00;99.90
33761;DHT22;20084;47.912;19.044;2024-02-23T01:21:58;11.00;99.90
33761;DHT22;20084;47.912;19.044;2024-02-23T01:24:27;11.00;99.90
33761;DHT22;20084;47.912;19.044;2024-02-23T01:26:54;10.90;99.90
33761;DHT22;20084;47.912;19.044;2024-02-23T01:29:21;10.90;99.90
33761;DHT22;20084;47.912;19.044;2024-02-23T01:31:48;10.80;99.90
33761;DHT22;20084;47.912;19.044;2024-02-23T01:34:13;10.80;99.90
33761;DHT22;20084;47.912;19.044;2024-02-23T01:36:39;10.80;99.90
33761;DHT22;20084;47.912;19.044;2024-02-23T01:39:05;10.70;99.90
33761;DHT22;20084;47.912;19.044;2024-02-23T01:41:30;10.60;99.90
33761;DHT22;20084;47.912;19.044;2024-02-23T01:43:56;10.70;99.90
33761;DHT22;20084;47.912;19.044;2024-02-23T01:46:21;10.60;99.90
33761;DHT22;20084;47.912;19.044;2024-02-23T01:48:47;10.60;99.90
33761;DHT22;20084;47.912;19.044;2024-02-23T01:51:13;10.60;99.90
33761;DHT22;20084;47.912;19.044;2024-02-23T01:53:39;10.60;99.90
33761;DHT22;20084;47.912;19.044;2024-02-23T01:56:06;10.60;99.90
33761;DHT22;20084;47.912;19.044;2024-02-23T01:58:33;10.60;99.90
33761;DHT22;20084;47.912;19.044;2024-02-23T02:01:00;10.60;99.90
33761;DHT22;20084;47.912;19.044;2024-02-23T02:03:25;10.50;99.90
33761;DHT22;20084;47.912;19.044;2024-02-23T02:05:52;10.50;99.90
33761;DHT22;20084;47.912;19.044;2024-02-23T02:08:19;10.50;99.90
33761;DHT22;20084;47.912;19.044;2024-02-23T02:10:45;10.50;99.90
33761;DHT22;20084;47.912;19.044;2024-02-23T02:13:12;10.50;99.90
33761;DHT22;20084;47.912;19.044;2024-02-23T02:15:37;10.50;99.90
33761;DHT22;20084;47.912;19.044;2024-02-23T02:18:03;10.40;99.90
33761;DHT22;20084;47.912;19.044;2024-02-23T02:20:32;10.40;99.90
33761;DHT22;20084;47.912;19.044;2024-02-23T02:22:58;10.40;99.90
33761;DHT22;20084;47.912;19.044;2024-02-23T02:25:24;10.30;99.90
33761;DHT22;20084;47.912;19.044;2024-02-23T02:27:49;10.30;99.90
33761;DHT22;20084;47.912;19.044;2024-02-23T02:30:15;10.20;99.90
33761;DHT22;20084;47.912;19.044;2024-02-23T02:32:40;10.20;99.90
33761;DHT22;20084;47.912;19.044;2024-02-23T02:35:06;10.10;99.90
33761;DHT22;20084;47.912;19.044;2024-02-23T02:37:32;10.10;99.90
33761;DHT22;20084;47.912;19.044;2024-02-23T02:39:57;10.10;99.90
33761;DHT22;20084;47.912;19.044;2024-02-23T02:42:23;10.10;99.90
33761;DHT22;20084;47.912;19.044;2024-02-23T02:44:49;10.10;99.90
33761;DHT22;20084;47.912;19.044;2024-02-23T02:47:14;10.10;99.90
33761;DHT22;20084;47.912;19.044;2024-02-23T02:49:41;10.10;99.90
33761;DHT22;20084;47.912;19.044;2024-02-23T02:52:06;10.10;99.90
33761;DHT22;20084;47.912;19.044;2024-02-23T02:54:34;10.00;99.90
33761;DHT22;20084;47.912;19.044;2024-02-23T02:56:59;10.10;99.90
33761;DHT22;20084;47.912;19.044;2024-02-23T02:59:25;10.10;99.90
33761;DHT22;20084;47.912;19.044;2024-02-23T03:01:50;10.10;99.90
33761;DHT22;20084;47.912;19.044;2024-02-23T03:04:16;10.10;99.90
33761;DHT22;20084;47.912;19.044;2024-02-23T03:06:41;10.00;99.90
33761;DHT22;20084;47.912;19.044;2024-02-23T03:09:07;9.90;99.90
33761;DHT22;20084;47.912;19.044;2024-02-23T03:11:33;9.90;99.90
33761;DHT22;20084;47.912;19.044;2024-02-23T03:13:59;9.80;99.90
33761;DHT22;20084;47.912;19.044;2024-02-23T03:16:24;9.90;99.90
33761;DHT22;20084;47.912;19.044;2024-02-23T03:18:54;9.90;99.90
33761;DHT22;20084;47.912;19.044;2024-02-23T03:21:20;9.80;99.90
33761;DHT22;20084;47.912;19.044;2024-02-23T03:23:45;9.80;99.90
33761;DHT22;20084;47.912;19.044;2024-02-23T03:26:11;9.80;99.90
33761;DHT22;20084;47.912;19.044;2024-02-23T03:28:36;9.80;99.90
33761;DHT22;20084;47.912;19.044;2024-02-23T03:31:02;9.70;99.90
33761;DHT22;20084;47.912;19.044;2024-02-23T03:33:28;9.70;99.90
33761;DHT22;20084;47.912;19.044;2024-02-23T03:35:53;9.70;99.90
33761;DHT22;20084;47.912;19.044;2024-02-23T03:38:21;9.70;99.90
33761;DHT22;20084;47.912;19.044;2024-02-23T03:40:46;9.70;99.90
33761;DHT22;20084;47.912;19.044;2024-02-23T03:43:12;9.70;99.90
33761;DHT22;20084;47.912;19.044;2024-02-23T03:45:37;9.60;99.90
33761;DHT22;20084;47.912;19.044;2024-02-23T03:48:04;9.60;99.90
33761;DHT22;20084;47.912;19.044;2024-02-23T03:50:30;9.70;99.90
33761;DHT22;20084;47.912;19.044;2024-02-23T03:52:56;9.70;99.90
33761;DHT22;20084;47.912;19.044;2024-02-23T03:55:21;9.80;99.90
33761;DHT22;20084;47.912;19.044;2024-02-23T03:57:48;9.70;99.90
33761;DHT22;20084;47.912;19.044;2024-02-23T04:00:14;9.70;99.90
33761;DHT22;20084;47.912;19.044;2024-02-23T04:02:40;9.70;99.90
33761;DHT22;20084;47.912;19.044;2024-02-23T04:05:06;9.70;99.90
33761;DHT22;20084;47.912;19.044;2024-02-23T04:07:32;9.70;99.90
33761;DHT22;20084;47.912;19.044;2024-02-23T04:09:57;9.80;99.90
33761;DHT22;20084;47.912;19.044;2024-02-23T04:12:23;9.90;99.90
33761;DHT22;20084;47.912;19.044;2024-02-23T04:14:49;10.00;99.90
33761;DHT22;20084;47.912;19.044;2024-02-23T04:17:15;10.10;99.90
33761;DHT22;20084;47.912;19.044;2024-02-23T04:19:41;10.20;99.90
33761;DHT22;20084;47.912;19.044;2024-02-23T04:22:08;10.20;99.90
33761;DHT22;20084;47.912;19.044;2024-02-23T04:24:38;10.30;99.90
33761;DHT22;20084;47.912;19.044;2024-02-23T04:27:05;10.30;99.90
33761;DHT22;20084;47.912;19.044;2024-02-23T04:29:31;10.30;99.90
33761;DHT22;20084;47.912;19.044;2024-02-23T04:31:58;10.30;99.90
33761;DHT22;20084;47.912;19.044;2024-02-23T04:34:23;10.20;99.90
33761;DHT22;20084;47.912;19.044;2024-02-23T04:36:49;10.30;99.90
33761;DHT22;20084;47.912;19.044;2024-02-23T04:39:14;10.20;99.90
33761;DHT22;20084;47.912;19.044;2024-02-23T04:41:40;10.20;99.90
33761;DHT22;20084;47.912;19.044;2024-02-23T04:44:06;10.20;99.90
33761;DHT22;20084;47.912;19.044;2024-02-23T04:46:31;10.30;99.90
33761;DHT22;20084;47.912;19.044;2024-02-23T04:48:57;10.30;99.90
33761;DHT22;20084;47.912;19.044;2024-02-23T04:51:23;10.30;99.90
33761;DHT22;20084;47.912;19.044;2024-02-23T04:53:49;10.20;99.90
33761;DHT22;20084;47.912;19.044;2024-02-23T04:56:15;10.20;99.90
33761;DHT22;20084;47.912;19.044;2024-02-23T04:58:41;10.20;99.90
33761;DHT22;20084;47.912;19.044;2024-02-23T05:01:09;10.10;99.90
33761;DHT22;20084;47.912;19.044;2024-02-23T05:03:36;10.10;99.90
33761;DHT22;20084;47.912;19.044;2024-02-23T05:06:02;10.00;99.90
33761;DHT22;20084;47.912;19.044;2024-02-23T05:08:28;10.00;99.90
33761;DHT22;20084;47.912;19.044;2024-02-23T05:10:58;10.00;99.90
33761;DHT22;20084;47.912;19.044;2024-02-23T05:13:24;10.00;99.90
33761;DHT22;20084;47.912;19.044;2024-02-23T05:15:50;10.00;99.90
33761;DHT22;20084;47.912;19.044;2024-02-23T05:18:15;10.00;99.90
33761;DHT22;20084;47.912;19.044;2024-02-23T05:20:41;10.00;99.90
33761;DHT22;20084;47.912;19.044;2024-02-23T05:23:07;10.00;99.90
33761;DHT22;20084;47.912;19.044;2024-02-23T05:25:33;9.90;99.90
33761;DHT22;20084;47.912;19.044;2024-02-23T05:27:59;9.90;99.90
33761;DHT22;20084;47.912;19.044;2024-02-23T05:30:24;9.80;99.90
33761;DHT22;20084;47.912;19.044;2024-02-23T05:32:52;9.80;99.90
33761;DHT22;20084;47.912;19.044;2024-02-23T05:35:17;9.70;99.90
33761;DHT22;20084;47.912;19.044;2024-02-23T05:37:43;9.60;99.90
33761;DHT22;20084;47.912;19.044;2024-02-23T05:40:09;9.70;99.90
33761;DHT22;20084;47.912;19.044;2024-02-23T05:42:38;9.80;99.90
33761;DHT22;20084;47.912;19.044;2024-02-23T05:45:04;9.80;99.90
33761;DHT22;20084;47.912;19.044;2024-02-23T05:47:35;9.80;99.90
33761;DHT22;20084;47.912;19.044;2024-02-23T05:50:04;9.70;99.90
33761;DHT22;20084;47.912;19.044;2024-02-23T05:52:34;9.60;99.90
33761;DHT22;20084;47.912;19.044;2024-02-23T05:55:02;9.50;99.90
33761;DHT22;20084;47.912;19.044;2024-02-23T05:57:29;9.60;99.90
33761;DHT22;20084;47.912;19.044;2024-02-23T05:59:55;9.50;99.90
33761;DHT22;20084;47.912;19.044;2024-02-23T06:02:21;9.50;99.90
33761;DHT22;20084;47.912;19.044;2024-02-23T06:04:47;9.50;99.90
33761;DHT22;20084;47.912;19.044;2024-02-23T06:07:13;9.50;99.90
33761;DHT22;20084;47.912;19.044;2024-02-23T06:09:41;9.60;99.90
33761;DHT22;20084;47.912;19.044;2024-02-23T06:12:07;9.70;99.90
33761;DHT22;20084;47.912;19.044;2024-02-23T06:14:33;9.70;99.90
33761;DHT22;20084;47.912;19.044;2024-02-23T06:16:59;9.70;99.90
33761;DHT22;20084;47.912;19.044;2024-02-23T06:19:25;9.70;99.90
33761;DHT22;20084;47.912;19.044;2024-02-23T06:21:50;9.70;99.90
33761;DHT22;20084;47.912;19.044;2024-02-23T06:24:16;9.60;99.90
33761;DHT22;20084;47.912;19.044;2024-02-23T06:26:42;9.50;99.90
33761;DHT22;20084;47.912;19.044;2024-02-23T06:29:08;9.50;99.90
33761;DHT22;20084;47.912;19.044;2024-02-23T06:31:37;9.40;99.90
33761;DHT22;20084;47.912;19.044;2024-02-23T06:34:03;9.40;99.90
33761;DHT22;20084;47.912;19.044;2024-02-23T06:36:29;9.50;99.90
33761;DHT22;20084;47.912;19.044;2024-02-23T06:38:54;9.50;99.90
33761;DHT22;20084;47.912;19.044;2024-02-23T06:41:20;9.50;99.90
33761;DHT22;20084;47.912;19.044;2024-02-23T06:43:46;9.50;99.90
33761;DHT22;20084;47.912;19.044;2024-02-23T06:46:11;9.40;99.90
33761;DHT22;20084;47.912;19.044;2024-02-23T06:48:38;9.30;99.90
33761;DHT22;20084;47.912;19.044;2024-02-23T06:51:04;9.30;99.90
33761;DHT22;20084;47.912;19.044;2024-02-23T06:53:30;9.50;99.90
33761;DHT22;20084;47.912;19.044;2024-02-23T06:55:56;9.50;99.90
33761;DHT22;20084;47.912;19.044;2024-02-23T06:58:22;9.50;99.90
33761;DHT22;20084;47.912;19.044;2024-02-23T07:00:47;9.50;99.90
33761;DHT22;20084;47.912;19.044;2024-02-23T07:03:13;9.50;99.90
33761;DHT22;20084;47.912;19.044;2024-02-23T07:05:40;9.50;99.90
33761;DHT22;20084;47.912;19.044;2024-02-23T07:08:08;9.50;99.90
33761;DHT22;20084;47.912;19.044;2024-02-23T07:10:33;9.60;99.90
33761;DHT22;20084;47.912;19.044;2024-02-23T07:12:59;9.50;99.90
33761;DHT22;20084;47.912;19.044;2024-02-23T07:15:25;9.60;99.90
33761;DHT22;20084;47.912;19.044;2024-02-23T07:17:52;9.60;99.90
33761;DHT22;20084;47.912;19.044;2024-02-23T07:20:17;9.60;99.90
33761;DHT22;20084;47.912;19.044;2024-02-23T07:22:44;9.60;99.90
33761;DHT22;20084;47.912;19.044;2024-02-23T07:25:10;9.70;99.90
33761;DHT22;20084;47.912;19.044;2024-02-23T07:27:36;9.60;99.90
33761;DHT22;20084;47.912;19.044;2024-02-23T07:30:02;9.70;99.90
33761;DHT22;20084;47.912;19.044;2024-02-23T07:32:30;9.60;99.90
33761;DHT22;20084;47.912;19.044;2024-02-23T07:34:55;9.60;99.90
33761;DHT22;20084;47.912;19.044;2024-02-23T07:37:21;9.50;99.90
33761;DHT22;20084;47.912;19.044;2024-02-23T07:39:46;9.50;99.90
33761;DHT22;20084;47.912;19.044;2024-02-23T07:42:12;9.50;99.90
33761;DHT22;20084;47.912;19.044;2024-02-23T07:44:40;9.50;99.90
33761;DHT22;20084;47.912;19.044;2024-02-23T07:47:06;9.40;99.90
33761;DHT22;20084;47.912;19.044;2024-02-23T07:49:31;9.30;99.90
33761;DHT22;20084;47.912;19.044;2024-02-23T07:51:57;9.30;99.90
33761;DHT22;20084;47.912;19.044;2024-02-23T07:54:22;9.30;99.90
33761;DHT22;20084;47.912;19.044;2024-02-23T07:56:48;9.30;99.90
33761;DHT22;20084;47.912;19.044;2024-02-23T07:59:14;9.30;99.90
33761;DHT22;20084;47.912;19.044;2024-02-23T08:01:39;9.30;99.90
33761;DHT22;20084;47.912;19.044;2024-02-23T08:04:05;9.20;99.90
33761;DHT22;20084;47.912;19.044;2024-02-23T08:06:31;9.20;99.90
33761;DHT22;20084;47.912;19.044;2024-02-23T08:08:57;9.10;99.90
33761;DHT22;20084;47.912;19.044;2024-02-23T08:11:22;9.10;99.90
33761;DHT22;20084;47.912;19.044;2024-02-23T08:13:48;9.20;99.90
33761;DHT22;20084;47.912;19.044;2024-02-23T08:16:16;9.20;99.90
33761;DHT22;20084;47.912;19.044;2024-02-23T08:18:42;9.10;99.90
33761;DHT22;20084;47.912;19.044;2024-02-23T08:21:10;9.20;99.90
33761;DHT22;20084;47.912;19.044;2024-02-23T08:23:36;9.10;99.90
33761;DHT22;20084;47.912;19.044;2024-02-23T08:26:01;9.20;99.90
33761;DHT22;20084;47.912;19.044;2024-02-23T08:28:27;9.20;99.90
33761;DHT22;20084;47.912;19.044;2024-02-23T08:30:53;9.10;99.90
33761;DHT22;20084;47.912;19.044;2024-02-23T08:33:18;9.10;99.90
33761;DHT22;20084;47.912;19.044;2024-02-23T08:35:44;9.10;99.90
33761;DHT22;20084;47.912;19.044;2024-02-23T08:38:10;9.10;99.90
33761;DHT22;20084;47.912;19.044;2024-02-23T08:40:36;9.00;99.90
33761;DHT22;20084;47.912;19.044;2024-02-23T08:43:02;9.00;99.90
33761;DHT22;20084;47.912;19.044;2024-02-23T08:45:28;9.00;99.90
33761;DHT22;20084;47.912;19.044;2024-02-23T08:47:53;9.00;99.90
33761;DHT22;20084;47.912;19.044;2024-02-23T08:50:19;9.00;99.90
33761;DHT22;20084;47.912;19.044;2024-02-23T08:52:45;8.90;99.90
33761;DHT22;20084;47.912;19.044;2024-02-23T08:55:10;8.90;99.90
33761;DHT22;20084;47.912;19.044;2024-02-23T08:57:37;9.00;99.90
33761;DHT22;20084;47.912;19.044;2024-02-23T09:00:04;9.00;99.90
33761;DHT22;20084;47.912;19.044;2024-02-23T09:02:30;9.00;99.90
33761;DHT22;20084;47.912;19.044;2024-02-23T09:04:57;9.00;99.90
33761;DHT22;20084;47.912;19.044;2024-02-23T09:07:23;8.90;99.90
33761;DHT22;20084;47.912;19.044;2024-02-23T09:09:49;8.90;99.90
33761;DHT22;20084;47.912;19.044;2024-02-23T09:12:18;8.90;99.90
33761;DHT22;20084;47.912;19.044;2024-02-23T09:14:43;8.90;99.90
33761;DHT22;20084;47.912;19.044;2024-02-23T09:17:10;8.90;99.90
33761;DHT22;20084;47.912;19.044;2024-02-23T09:19:36;8.90;99.90
33761;DHT22;20084;47.912;19.044;2024-02-23T09:22:02;9.00;99.90
33761;DHT22;20084;47.912;19.044;2024-02-23T09:24:28;8.90;99.90
33761;DHT22;20084;47.912;19.044;2024-02-23T09:26:54;8.90;99.90
33761;DHT22;20084;47.912;19.044;2024-02-23T09:29:19;9.00;99.90
33761;DHT22;20084;47.912;19.044;2024-02-23T09:31:45;9.00;99.90
33761;DHT22;20084;47.912;19.044;2024-02-23T09:34:11;9.00;99.90
33761;DHT22;20084;47.912;19.044;2024-02-23T09:36:36;9.00;99.90
33761;DHT22;20084;47.912;19.044;2024-02-23T09:39:02;9.00;99.90
33761;DHT22;20084;47.912;19.044;2024-02-23T09:41:29;9.00;99.90
33761;DHT22;20084;47.912;19.044;2024-02-23T09:43:58;9.00;99.90
33761;DHT22;20084;47.912;19.044;2024-02-23T09:46:25;9.10;99.90
33761;DHT22;20084;47.912;19.044;2024-02-23T09:48:51;9.20;99.90
33761;DHT22;20084;47.912;19.044;2024-02-23T09:51:17;9.30;99.90
33761;DHT22;20084;47.912;19.044;2024-02-23T09:53:43;9.30;99.90
33761;DHT22;20084;47.912;19.044;2024-02-23T09:56:09;9.40;99.90
33761;DHT22;20084;47.912;19.044;2024-02-23T09:58:39;9.40;99.90
33761;DHT22;20084;47.912;19.044;2024-02-23T10:01:07;9.50;99.90
33761;DHT22;20084;47.912;19.044;2024-02-23T10:03:32;9.60;99.90
33761;DHT22;20084;47.912;19.044;2024-02-23T10:05:59;9.60;99.90
33761;DHT22;20084;47.912;19.044;2024-02-23T10:08:28;9.60;99.90
33761;DHT22;20084;47.912;19.044;2024-02-23T10:10:54;9.70;99.90
33761;DHT22;20084;47.912;19.044;2024-02-23T10:13:24;9.70;99.90
33761;DHT22;20084;47.912;19.044;2024-02-23T10:15:53;9.80;99.90
33761;DHT22;20084;47.912;19.044;2024-02-23T10:18:19;9.80;99.90
33761;DHT22;20084;47.912;19.044;2024-02-23T10:20:46;9.80;99.90
33761;DHT22;20084;47.912;19.044;2024-02-23T10:23:12;9.90;99.90
33761;DHT22;20084;47.912;19.044;2024-02-23T10:25:37;9.90;99.90
33761;DHT22;20084;47.912;19.044;2024-02-23T10:28:04;9.90;99.90
33761;DHT22;20084;47.912;19.044;2024-02-23T10:30:31;9.90;99.90
33761;DHT22;20084;47.912;19.044;2024-02-23T10:32:57;10.00;99.90
33761;DHT22;20084;47.912;19.044;2024-02-23T10:35:24;10.00;99.90
33761;DHT22;20084;47.912;19.044;2024-02-23T10:37:51;10.10;99.90
33761;DHT22;20084;47.912;19.044;2024-02-23T10:40:19;10.20;99.90
33761;DHT22;20084;47.912;19.044;2024-02-23T10:42:47;10.10;99.90
33761;DHT22;20084;47.912;19.044;2024-02-23T10:45:21;10.20;99.90
33761;DHT22;20084;47.912;19.044;2024-02-23T10:47:53;10.20;99.90
33761;DHT22;20084;47.912;19.044;2024-02-23T10:50:22;10.20;99.90
33761;DHT22;20084;47.912;19.044;2024-02-23T10:52:49;10.20;99.90
33761;DHT22;20084;47.912;19.044;2024-02-23T10:55:15;10.20;99.90
33761;DHT22;20084;47.912;19.044;2024-02-23T10:57:42;10.30;99.90
33761;DHT22;20084;47.912;19.044;2024-02-23T11:00:09;10.30;99.90
33761;DHT22;20084;47.912;19.044;2024-02-23T11:02:44;10.30;99.90
33761;DHT22;20084;47.912;19.044;2024-02-23T11:05:12;10.30;99.90
33761;DHT22;20084;47.912;19.044;2024-02-23T11:07:39;10.30;99.90
33761;DHT22;20084;47.912;19.044;2024-02-23T11:10:05;10.30;99.90
33761;DHT22;20084;47.912;19.044;2024-02-23T11:12:31;10.30;99.90
33761;DHT22;20084;47.912;19.044;2024-02-23T11:14:59;10.40;99.90
33761;DHT22;20084;47.912;19.044;2024-02-23T11:17:30;10.40;99.90
33761;DHT22;20084;47.912;19.044;2024-02-23T11:19:56;10.40;99.90
33761;DHT22;20084;47.912;19.044;2024-02-23T11:22:35;10.40;99.90
33761;DHT22;20084;47.912;19.044;2024-02-23T11:25:07;10.40;99.90
33761;DHT22;20084;47.912;19.044;2024-02-23T11:27:37;10.50;99.90
33761;DHT22;20084;47.912;19.044;2024-02-23T11:30:04;10.60;99.90
33761;DHT22;20084;47.912;19.044;2024-02-23T11:35:06;10.60;99.90
33761;DHT22;20084;47.912;19.044;2024-02-23T11:37:32;10.60;99.90
33761;DHT22;20084;47.912;19.044;2024-02-23T11:40:00;10.60;99.90
33761;DHT22;20084;47.912;19.044;2024-02-23T11:42:27;10.60;99.90
33761;DHT22;20084;47.912;19.044;2024-02-23T11:44:53;10.60;99.90
33761;DHT22;20084;47.912;19.044;2024-02-23T11:47:24;10.50;99.90
33761;DHT22;20084;47.912;19.044;2024-02-23T11:49:50;10.60;99.90
33761;DHT22;20084;47.912;19.044;2024-02-23T11:52:16;10.60;99.90
33761;DHT22;20084;47.912;19.044;2024-02-23T11:54:42;10.60;99.90
33761;DHT22;20084;47.912;19.044;2024-02-23T11:57:08;10.70;99.90
33761;DHT22;20084;47.912;19.044;2024-02-23T11:59:33;10.70;99.90
33761;DHT22;20084;47.912;19.044;2024-02-23T12:01:59;10.70;99.90
33761;DHT22;20084;47.912;19.044;2024-02-23T12:04:27;10.70;99.90
33761;DHT22;20084;47.912;19.044;2024-02-23T12:06:54;10.70;99.90
33761;DHT22;20084;47.912;19.044;2024-02-23T12:09:20;10.70;99.90
33761;DHT22;20084;47.912;19.044;2024-02-23T12:11:45;10.60;99.90
33761;DHT22;20084;47.912;19.044;2024-02-23T12:14:11;10.70;99.90
33761;DHT22;20084;47.912;19.044;2024-02-23T12:16:37;10.70;99.90
33761;DHT22;20084;47.912;19.044;2024-02-23T12:19:05;10.70;99.90
33761;DHT22;20084;47.912;19.044;2024-02-23T12:21:33;10.80;99.90
33761;DHT22;20084;47.912;19.044;2024-02-23T12:23:59;10.80;99.90
33761;DHT22;20084;47.912;19.044;2024-02-23T12:26:24;10.80;99.90
33761;DHT22;20084;47.912;19.044;2024-02-23T12:28:50;10.90;99.90
33761;DHT22;20084;47.912;19.044;2024-02-23T12:31:16;11.00;99.90
33761;DHT22;20084;47.912;19.044;2024-02-23T12:33:48;11.00;99.90
33761;DHT22;20084;47.912;19.044;2024-02-23T12:36:15;10.90;99.90
33761;DHT22;20084;47.912;19.044;2024-02-23T12:38:40;11.00;99.90
33761;DHT22;20084;47.912;19.044;2024-02-23T12:41:06;11.00;99.90
33761;DHT22;20084;47.912;19.044;2024-02-23T12:43:32;11.00;99.90
33761;DHT22;20084;47.912;19.044;2024-02-23T12:45:58;11.00;99.90
33761;DHT22;20084;47.912;19.044;2024-02-23T12:48:23;11.00;99.90
33761;DHT22;20084;47.912;19.044;2024-02-23T12:50:49;11.00;99.90
33761;DHT22;20084;47.912;19.044;2024-02-23T12:53:38;11.00;99.90
33761;DHT22;20084;47.912;19.044;2024-02-23T12:56:10;11.00;99.90
33761;DHT22;20084;47.912;19.044;2024-02-23T12:58:44;11.10;99.90
33761;DHT22;20084;47.912;19.044;2024-02-23T13:01:11;11.10;99.90
33761;DHT22;20084;47.912;19.044;2024-02-23T13:03:38;11.10;99.90
33761;DHT22;20084;47.912;19.044;2024-02-23T13:06:05;11.20;99.90
33761;DHT22;20084;47.912;19.044;2024-02-23T13:08:31;11.20;99.90
33761;DHT22;20084;47.912;19.044;2024-02-23T13:10:57;11.20;99.90
33761;DHT22;20084;47.912;19.044;2024-02-23T13:13:24;11.10;99.90
33761;DHT22;20084;47.912;19.044;2024-02-23T13:15:51;11.20;99.90
33761;DHT22;20084;47.912;19.044;2024-02-23T13:18:17;11.10;99.90
33761;DHT22;20084;47.912;19.044;2024-02-23T13:20:43;11.20;99.90
33761;DHT22;20084;47.912;19.044;2024-02-23T13:23:09;11.10;99.90
33761;DHT22;20084;47.912;19.044;2024-02-23T13:25:37;11.10;99.90
33761;DHT22;20084;47.912;19.044;2024-02-23T13:28:03;11.10;99.90
33761;DHT22;20084;47.912;19.044;2024-02-23T13:30:30;11.10;99.90
33761;DHT22;20084;47.912;19.044;2024-02-23T13:32:56;11.10;99.90
33761;DHT22;20084;47.912;19.044;2024-02-23T13:35:21;11.10;99.90
33761;DHT22;20084;47.912;19.044;2024-02-23T13:37:47;11.10;99.90
33761;DHT22;20084;47.912;19.044;2024-02-23T13:40:13;11.10;99.90
33761;DHT22;20084;47.912;19.044;2024-02-23T13:42:40;11.10;99.90
33761;DHT22;20084;47.912;19.044;2024-02-23T13:45:06;11.10;99.90
33761;DHT22;20084;47.912;19.044;2024-02-23T13:47:33;11.20;99.90
33761;DHT22;20084;47.912;19.044;2024-02-23T13:49:59;11.30;99.90
33761;DHT22;20084;47.912;19.044;2024-02-23T13:52:25;11.30;99.90
33761;DHT22;20084;47.912;19.044;2024-02-23T13:54:51;11.40;99.90
33761;DHT22;20084;47.912;19.044;2024-02-23T13:57:16;11.40;99.90
33761;DHT22;20084;47.912;19.044;2024-02-23T13:59:42;11.40;99.90
33761;DHT22;20084;47.912;19.044;2024-02-23T14:02:08;11.40;99.90
33761;DHT22;20084;47.912;19.044;2024-02-23T14:04:33;11.30;99.90
33761;DHT22;20084;47.912;19.044;2024-02-23T14:06:59;11.30;99.90
33761;DHT22;20084;47.912;19.044;2024-02-23T14:09:25;11.30;99.90
33761;DHT22;20084;47.912;19.044;2024-02-23T14:11:51;11.40;99.90
33761;DHT22;20084;47.912;19.044;2024-02-23T14:14:16;11.40;99.90
33761;DHT22;20084;47.912;19.044;2024-02-23T14:16:42;11.50;99.90
33761;DHT22;20084;47.912;19.044;2024-02-23T14:19:08;11.50;99.90
33761;DHT22;20084;47.912;19.044;2024-02-23T14:21:34;11.50;99.90
33761;DHT22;20084;47.912;19.044;2024-02-23T14:24:02;11.50;99.90
33761;DHT22;20084;47.912;19.044;2024-02-23T14:26:28;11.50;99.90
33761;DHT22;20084;47.912;19.044;2024-02-23T14:28:53;11.50;99.90
33761;DHT22;20084;47.912;19.044;2024-02-23T14:31:19;11.60;99.90
33761;DHT22;20084;47.912;19.044;2024-02-23T14:33:45;11.60;99.90
33761;DHT22;20084;47.912;19.044;2024-02-23T14:36:10;11.60;99.90
33761;DHT22;20084;47.912;19.044;2024-02-23T14:38:36;11.60;99.90
33761;DHT22;20084;47.912;19.044;2024-02-23T14:41:02;11.60;99.90
33761;DHT22;20084;47.912;19.044;2024-02-23T14:43:27;11.60;99.90
33761;DHT22;20084;47.912;19.044;2024-02-23T14:45:57;11.60;99.90
33761;DHT22;20084;47.912;19.044;2024-02-23T14:48:22;11.60;99.90
33761;DHT22;20084;47.912;19.044;2024-02-23T14:50:48;11.60;99.90
33761;DHT22;20084;47.912;19.044;2024-02-23T14:53:15;11.60;99.90
33761;DHT22;20084;47.912;19.044;2024-02-23T14:55:40;11.60;99.90
33761;DHT22;20084;47.912;19.044;2024-02-23T14:58:06;11.60;99.90
33761;DHT22;20084;47.912;19.044;2024-02-23T15:00:32;11.50;99.90
33761;DHT22;20084;47.912;19.044;2024-02-23T15:02:58;11.50;99.90
33761;DHT22;20084;47.912;19.044;2024-02-23T15:05:24;11.50;99.90
33761;DHT22;20084;47.912;19.044;2024-02-23T15:07:50;11.50;99.90
33761;DHT22;20084;47.912;19.044;2024-02-23T15:10:15;11.50;99.90
33761;DHT22;20084;47.912;19.044;2024-02-23T15:12:41;11.50;99.90
33761;DHT22;20084;47.912;19.044;2024-02-23T15:15:07;11.50;99.90
33761;DHT22;20084;47.912;19.044;2024-02-23T15:17:33;11.40;99.90
33761;DHT22;20084;47.912;19.044;2024-02-23T15:19:58;11.50;99.90